This is the latest recevied weather packets stored in our database for station/object DB0LS-15. If no packets are shown the sender has not sent any weather packets the latest 10 day(s).
| Time | Temp. | Humidity | Pressure | Rain* | Wind** | Luminosity | Snow |
|---|---|---|---|---|---|---|---|
| 1777597825 | 10° C | 65% | 1012.1 hPa | 0 mm | - | - | - |
| 1777597222 | 9.44° C | 66% | 1012.1 hPa | 0 mm | - | - | - |
| 1777596618 | 9.44° C | 66% | 1012.1 hPa | 0 mm | - | - | - |
| 1777596074 | 8.89° C | 68% | 1012 hPa | 0 mm | - | - | - |
| 1777595470 | 10.56° C | 61% | 1012 hPa | 0 mm | - | - | - |
| 1777594867 | 11.67° C | 56% | 1011.9 hPa | 0 mm | - | - | - |
| 1777594263 | 12.22° C | 54% | 1012 hPa | 0 mm | - | - | - |
| 1777593659 | 12.22° C | 54% | 1012 hPa | 0 mm | - | - | - |
| 1777593056 | 12.22° C | 54% | 1011.9 hPa | 0 mm | - | - | - |
| 1777592452 | 12.22° C | 54% | 1011.9 hPa | 0 mm | - | - | - |
| 1777591848 | 12.22° C | 55% | 1011.9 hPa | 0 mm | - | - | - |
| 1777591244 | 11.67° C | 58% | 1012 hPa | 0 mm | - | - | - |
| 1777590640 | 12.22° C | 57% | 1012.1 hPa | 0 mm | - | - | - |
| 1777590036 | 11.11° C | 60% | 1012 hPa | 0 mm | - | - | - |
| 1777589462 | 11.11° C | 62% | 1012.1 hPa | 0 mm | - | - | - |
| 1777588859 | 11.11° C | 62% | 1012.1 hPa | 0 mm | - | - | - |
| 1777588255 | 11.11° C | 61% | 1012.1 hPa | 0 mm | - | - | - |
| 1777587651 | 11.11° C | 59% | 1012.2 hPa | 0 mm | - | - | - |
| 1777587047 | 11.67° C | 59% | 1012.1 hPa | 0 mm | - | - | - |
| 1777586444 | 11.67° C | 59% | 1012 hPa | 0 mm | - | - | - |
| 1777585840 | 13.33° C | 51% | 1012.1 hPa | 0 mm | - | - | - |
| 1777585236 | 13.89° C | 50% | 1012.1 hPa | 0 mm | - | - | - |
| 1777584632 | 13.89° C | 50% | 1012 hPa | 0 mm | - | - | - |
| 1777584028 | 13.89° C | 50% | 1011.9 hPa | 0 mm | - | - | - |
| 1777583424 | 13.89° C | 50% | 1012 hPa | 0 mm | - | - | - |
* Rain latest hour (hover to see other rain measurements)
** Current wind speed in m/s (hover to see current wind gust speed)